Normand Flipper — 9V6929 — position and weather

sailwx.info

Track history (hours):
 
Tides and Currents Weather Stations Pressure Air Temp Water Temp Dewpoint Dewpoint Depression Visibility Wind Speed Wind Dir Waves Ship Positions

Normand Flipper

Last reported at 2014-Aug-19 01:17 UTC. Time now 2014-Aug-20 04:56 UTC.
Position N 57°53' W 001°44'.

Length 89 m; draft 4.6 m.

Type: Cargo ship. MMSI: 566522000.

Date/timePositionNaut miles runAvg speedWind from/ knotsBaromVisibWave heightAir tempDewpointWater temp
2014-Aug-19 01:17N 57°53' W 001°44'6 8.1
2014-Aug-19 00:33N 57°47' W 001°43'8 8.4
2014-Aug-18 23:33N 57°38' W 001°42'9 9.0
2014-Aug-18 22:33N 57°29' W 001°42'9 9.1
2014-Aug-18 21:33N 57°21' W 001°48'7 1.0
2014-Aug-18 14:14N 57°15' W 001°55'811.9
2014-Aug-18 13:33N 57°22' W 001°48'1111.2
2014-Aug-18 12:33N 57°33' W 001°42'1211.8
2014-Aug-18 11:33N 57°44' W 001°43'8 0.2
2014-Aug-16 23:23N 57°53' W 001°43'1011.5
2014-Aug-16 22:33N 57°43' W 001°43'1212.1
2014-Aug-16 21:33N 57°31' W 001°41'1211.8
2014-Aug-16 20:33N 57°20' W 001°50'3 0.6
2014-Aug-16 15:30N 57°17' W 001°52'1212.8
2014-Aug-16 14:33N 57°28' W 001°42'1212.2
2014-Aug-16 13:33N 57°40' W 001°42'1110.8
2014-Aug-16 12:31N 57°51' W 001°44'  
2014-Aug-13 23:08N 57°53' W 001°44'6 9.8
2014-Aug-13 22:33N 57°47' W 001°42'1010.0
2014-Aug-13 21:33N 57°37' W 001°42'1111.1
2014-Aug-13 20:33N 57°26' W 001°44'12 0.6
2014-Aug-12 23:10N 57°15' W 001°55'5 8.3
2014-Aug-12 22:33N 57°20' W 001°50'9 8.7
2014-Aug-12 21:33N 57°27' W 001°43'9 8.9
2014-Aug-12 20:33N 57°36' W 001°42'9 8.9
2014-Aug-12 19:33N 57°45' W 001°41'  
Track history (hours):
 
Tides and Currents Weather Stations Pressure Air Temp Water Temp Dewpoint Dewpoint Depression Visibility Wind Speed Wind Dir Waves Ship Positions

Normand Flipper

Last reported at 2014-Aug-19 01:17 UTC. Time now 2014-Aug-20 04:56 UTC.
Position N 57°53' W 001°44'.

Length 89 m; draft 4.6 m.

Type: Cargo ship. MMSI: 566522000.

Date/timePositionNaut miles runAvg speedWind from/ knotsBaromVisibWave heightAir tempDewpointWater temp
2014-Aug-19 01:17N 57°53' W 001°44'6 8.1
2014-Aug-19 00:33N 57°47' W 001°43'8 8.4
2014-Aug-18 23:33N 57°38' W 001°42'9 9.0
2014-Aug-18 22:33N 57°29' W 001°42'9 9.1
2014-Aug-18 21:33N 57°21' W 001°48'7 1.0
2014-Aug-18 14:14N 57°15' W 001°55'811.9
2014-Aug-18 13:33N 57°22' W 001°48'1111.2
2014-Aug-18 12:33N 57°33' W 001°42'1211.8
2014-Aug-18 11:33N 57°44' W 001°43'8 0.2
2014-Aug-16 23:23N 57°53' W 001°43'1011.5
2014-Aug-16 22:33N 57°43' W 001°43'1212.1
2014-Aug-16 21:33N 57°31' W 001°41'1211.8
2014-Aug-16 20:33N 57°20' W 001°50'3 0.6
2014-Aug-16 15:30N 57°17' W 001°52'1212.8
2014-Aug-16 14:33N 57°28' W 001°42'1212.2
2014-Aug-16 13:33N 57°40' W 001°42'1110.8
2014-Aug-16 12:31N 57°51' W 001°44'  
2014-Aug-13 23:08N 57°53' W 001°44'6 9.8
2014-Aug-13 22:33N 57°47' W 001°42'1010.0
2014-Aug-13 21:33N 57°37' W 001°42'1111.1
2014-Aug-13 20:33N 57°26' W 001°44'12 0.6
2014-Aug-12 23:10N 57°15' W 001°55'5 8.3
2014-Aug-12 22:33N 57°20' W 001°50'9 8.7
2014-Aug-12 21:33N 57°27' W 001°43'9 8.9
2014-Aug-12 20:33N 57°36' W 001°42'9 8.9
2014-Aug-12 19:33N 57°45' W 001°41'  

Dump ship's entire track history